createdAt,value
2018-11-25T00:00:24.547Z,29.27
2018-11-25T00:02:53.619Z,30.17
2018-11-25T00:05:22.589Z,31.23
2018-11-25T00:07:52.305Z,27.20
2018-11-25T00:10:21.904Z,27.80
2018-11-25T00:12:51.223Z,26.37
2018-11-25T00:15:20.193Z,29.17
2018-11-25T00:17:49.227Z,25.33
2018-11-25T00:20:18.300Z,28.20
2018-11-25T00:22:47.397Z,25.43
2018-11-25T00:25:17.344Z,26.60
2018-11-25T00:27:46.360Z,24.90
2018-11-25T00:30:16.324Z,31.53
2018-11-25T00:32:45.598Z,24.13
2018-11-25T00:35:15.625Z,25.17
2018-11-25T00:37:48.340Z,25.53
2018-11-25T00:40:15.015Z,24.57
2018-11-25T00:42:44.743Z,27.67
2018-11-25T00:45:16.981Z,23.30
2018-11-25T00:47:46.405Z,22.13
2018-11-25T00:50:16.055Z,25.90
2018-11-25T00:52:45.110Z,23.03
2018-11-25T00:55:16.426Z,21.77
2018-11-25T00:57:46.361Z,22.47
2018-11-25T01:00:18.494Z,23.90
2018-11-25T01:02:48.633Z,24.60
2018-11-25T01:05:17.800Z,22.93
2018-11-25T01:07:46.855Z,18.93
2018-11-25T01:10:17.145Z,23.40
2018-11-25T01:12:46.388Z,24.83
2018-11-25T01:15:17.165Z,22.37
2018-11-25T01:17:46.362Z,23.80
2018-11-25T01:20:16.996Z,24.53
2018-11-25T01:22:46.171Z,22.93
2018-11-25T01:25:15.310Z,22.97
2018-11-25T01:27:44.411Z,21.77
2018-11-25T01:30:15.521Z,23.27
2018-11-25T01:32:44.925Z,20.20
2018-11-25T01:35:14.303Z,21.77
2018-11-25T01:37:43.842Z,24.73
2018-11-25T01:40:14.152Z,22.33
2018-11-25T01:42:43.168Z,21.03
2018-11-25T01:45:15.204Z,24.03
2018-11-25T01:47:44.395Z,23.10
2018-11-25T01:50:16.778Z,20.20
2018-11-25T01:52:46.436Z,21.87
2018-11-25T01:55:16.575Z,16.80
2018-11-25T01:57:45.567Z,14.30
2018-11-25T02:00:18.887Z,12.63
2018-11-25T02:02:47.998Z,13.40
2018-11-25T02:05:17.057Z,14.73
2018-11-25T02:07:46.075Z,14.70
2018-11-25T02:10:16.302Z,13.20
2018-11-25T02:12:46.027Z,13.50
2018-11-25T02:15:15.841Z,11.03
2018-11-25T02:17:45.236Z,13.60
2018-11-25T02:20:17.687Z,10.73
2018-11-25T02:22:46.651Z,11.60
2018-11-25T02:25:16.113Z,12.07
2018-11-25T02:27:45.601Z,12.67
2018-11-25T02:30:16.877Z,12.43
2018-11-25T02:32:46.439Z,13.43
2018-11-25T02:35:16.627Z,12.27
2018-11-25T02:37:46.385Z,11.50
2018-11-25T02:40:16.405Z,10.70
2018-11-25T02:42:45.454Z,11.60
2018-11-25T02:45:17.341Z,13.13
2018-11-25T02:47:46.331Z,14.53
2018-11-25T02:50:25.118Z,12.30
2018-11-25T02:52:55.620Z,12.50
2018-11-25T02:55:25.651Z,13.43
2018-11-25T02:57:55.011Z,11.03
2018-11-25T03:00:24.450Z,18.00
2018-11-25T03:02:53.833Z,18.47
2018-11-25T03:05:22.875Z,18.33
2018-11-25T03:07:51.928Z,20.07
2018-11-25T03:10:20.955Z,19.67
2018-11-25T03:12:50.240Z,18.47
2018-11-25T03:15:19.355Z,22.30
2018-11-25T03:17:48.535Z,31.43
2018-11-25T03:20:18.197Z,24.27
2018-11-25T03:22:47.291Z,38.77
2018-11-25T03:25:17.879Z,79.47
2018-11-25T03:27:46.978Z,101.40
2018-11-25T03:30:20.131Z,211.70
2018-11-25T03:32:50.253Z,157.87
2018-11-25T03:35:19.327Z,185.77
2018-11-25T03:37:48.895Z,176.43
2018-11-25T03:40:18.841Z,113.83
2018-11-25T03:42:48.318Z,160.07
2018-11-25T03:45:20.410Z,182.93
2018-11-25T03:47:49.451Z,63.63
2018-11-25T03:50:18.826Z,70.53
2018-11-25T03:52:47.824Z,226.97
2018-11-25T03:55:17.515Z,104.57
2018-11-25T03:57:47.052Z,100.80
2018-11-25T04:00:20.669Z,161.73
2018-11-25T04:02:50.404Z,183.17
2018-11-25T04:05:19.692Z,107.13
2018-11-25T04:07:48.937Z,100.90
2018-11-25T04:10:19.714Z,61.93
2018-11-25T04:12:48.737Z,83.23
2018-11-25T04:15:18.726Z,110.00
2018-11-25T04:17:48.850Z,61.87
2018-11-25T04:20:19.183Z,97.20
2018-11-25T04:22:48.476Z,82.37
2018-11-25T04:25:17.656Z,114.17
2018-11-25T04:27:46.575Z,72.37
2018-11-25T04:30:16.635Z,117.33
2018-11-25T04:32:46.531Z,135.53
2018-11-25T04:35:15.581Z,99.43
2018-11-25T04:37:45.563Z,134.13
2018-11-25T04:40:15.474Z,157.50
2018-11-25T04:42:44.470Z,65.97
2018-11-25T04:45:14.533Z,65.57
2018-11-25T04:47:43.857Z,42.57
2018-11-25T04:50:13.103Z,75.23
2018-11-25T04:52:42.344Z,29.03
2018-11-25T04:55:11.451Z,52.87
2018-11-25T04:57:40.161Z,43.70
2018-11-25T05:00:09.471Z,91.17
2018-11-25T05:02:39.271Z,54.23
2018-11-25T05:05:09.496Z,73.63
2018-11-25T05:07:38.391Z,24.10
2018-11-25T05:10:12.502Z,51.60
2018-11-25T05:12:42.041Z,125.87
2018-11-25T05:15:16.448Z,47.57
2018-11-25T05:17:45.685Z,31.87
2018-11-25T05:20:15.021Z,45.60
2018-11-25T05:22:44.956Z,102.97
2018-11-25T05:25:17.920Z,46.63
2018-11-25T05:27:47.891Z,61.53
2018-11-25T05:30:18.560Z,56.93
2018-11-25T05:32:47.221Z,41.93
2018-11-25T05:35:16.853Z,94.40
2018-11-25T05:37:46.108Z,90.20
2018-11-25T05:40:15.933Z,51.73
2018-11-25T05:42:45.519Z,73.20
2018-11-25T05:45:17.739Z,53.47
2018-11-25T05:47:46.876Z,82.17
2018-11-25T05:50:17.491Z,66.50
2018-11-25T05:52:46.962Z,69.33
2018-11-25T05:55:15.964Z,55.30
2018-11-25T05:57:45.038Z,29.90
2018-11-25T06:00:19.429Z,40.37
2018-11-25T06:02:48.699Z,21.57
2018-11-25T06:05:18.043Z,46.90
2018-11-25T06:07:47.128Z,57.67
2018-11-25T06:10:16.215Z,35.10
2018-11-25T06:12:44.897Z,46.90
2018-11-25T06:15:14.601Z,63.10
2018-11-25T06:17:44.451Z,81.73
2018-11-25T06:20:15.020Z,39.47
2018-11-25T06:22:44.214Z,79.63
2018-11-25T06:25:15.618Z,30.53
2018-11-25T06:27:45.010Z,66.97
2018-11-25T06:30:15.146Z,77.80
2018-11-25T06:32:44.931Z,43.13
2018-11-25T06:35:16.018Z,148.53
2018-11-25T06:37:45.457Z,46.57
2018-11-25T06:40:16.831Z,67.00
2018-11-25T06:42:45.840Z,67.93
2018-11-25T06:45:28.968Z,58.27
2018-11-25T06:47:58.326Z,52.73
2018-11-25T06:50:27.359Z,87.83
2018-11-25T06:52:56.657Z,65.30
2018-11-25T06:55:26.347Z,103.10
2018-11-25T06:57:54.973Z,51.63
2018-11-25T07:00:24.959Z,43.23
2018-11-25T07:02:54.114Z,56.27
2018-11-25T07:05:22.893Z,55.20
2018-11-25T07:07:51.902Z,74.67
2018-11-25T07:10:22.120Z,41.50
2018-11-25T07:12:53.341Z,46.37
2018-11-25T07:15:22.626Z,53.50
2018-11-25T07:17:51.615Z,45.63
2018-11-25T07:20:20.765Z,20.30
2018-11-25T07:22:49.447Z,27.47
2018-11-25T07:25:21.757Z,18.90
2018-11-25T07:27:50.763Z,25.10
2018-11-25T07:30:22.168Z,23.10
2018-11-25T07:32:51.196Z,25.13
2018-11-25T07:35:20.309Z,26.90
2018-11-25T07:37:49.609Z,17.17
2018-11-25T07:40:19.932Z,28.30
2018-11-25T07:42:49.623Z,25.13
2018-11-25T07:45:21.494Z,14.73
2018-11-25T07:47:50.936Z,29.23
2018-11-25T07:50:20.426Z,19.40
2018-11-25T07:52:49.894Z,20.23
2018-11-25T07:55:21.061Z,22.67
2018-11-25T07:57:50.988Z,26.13
2018-11-25T08:00:20.501Z,34.40
2018-11-25T08:02:49.451Z,24.03
2018-11-25T08:05:20.639Z,17.93
2018-11-25T08:07:49.837Z,21.17
2018-11-25T08:10:18.928Z,24.27
2018-11-25T08:12:48.448Z,32.10
2018-11-25T08:15:18.709Z,26.20
2018-11-25T08:17:48.091Z,37.07
2018-11-25T08:20:19.070Z,19.10
2018-11-25T08:22:48.182Z,34.57
2018-11-25T08:25:18.151Z,27.20
2018-11-25T08:27:47.620Z,27.43
2018-11-25T08:30:21.380Z,27.60
2018-11-25T08:32:50.831Z,20.80
2018-11-25T08:35:19.614Z,47.23
2018-11-25T08:37:48.618Z,22.50
2018-11-25T08:40:20.994Z,31.73
2018-11-25T08:42:50.084Z,16.47
2018-11-25T08:45:19.212Z,23.77
2018-11-25T08:47:49.000Z,39.60
2018-11-25T08:50:18.973Z,26.13
2018-11-25T08:52:50.283Z,28.50
2018-11-25T08:55:21.759Z,18.97
2018-11-25T08:57:51.105Z,33.97
2018-11-25T09:00:21.246Z,16.60
2018-11-25T09:02:51.438Z,19.10
2018-11-25T09:05:20.464Z,12.63
2018-11-25T09:07:49.465Z,13.00
2018-11-25T09:10:21.257Z,16.50
2018-11-25T09:12:55.713Z,25.53
2018-11-25T09:15:23.882Z,22.17
2018-11-25T09:17:54.265Z,24.13
2018-11-25T09:20:25.641Z,22.40
2018-11-25T09:22:54.891Z,18.20
2018-11-25T09:25:29.419Z,14.43
2018-11-25T09:27:59.586Z,17.00
2018-11-25T09:30:29.323Z,19.10
2018-11-25T09:32:58.241Z,16.67
2018-11-25T09:35:27.635Z,26.13
2018-11-25T09:37:57.775Z,16.00
2018-11-25T09:40:27.951Z,17.57
2018-11-25T09:42:56.990Z,20.23
2018-11-25T09:45:26.410Z,31.27
2018-11-25T09:47:55.339Z,19.20
2018-11-25T09:50:24.789Z,21.57
2018-11-25T09:52:53.795Z,15.60
2018-11-25T09:55:23.794Z,19.70
2018-11-25T09:57:56.139Z,42.83
2018-11-25T10:00:29.411Z,24.20
2018-11-25T10:02:58.898Z,22.30
2018-11-25T10:05:27.576Z,17.47
2018-11-25T10:07:56.744Z,30.97
2018-11-25T10:10:26.009Z,18.47
2018-11-25T10:12:54.978Z,21.73
2018-11-25T10:15:25.324Z,30.23
2018-11-25T10:17:59.365Z,22.90
2018-11-25T10:20:24.336Z,16.50
2018-11-25T10:22:53.459Z,19.57
2018-11-25T10:25:23.397Z,18.43
2018-11-25T10:27:52.196Z,25.40
2018-11-25T10:30:22.147Z,20.27
2018-11-25T10:33:07.280Z,22.97
2018-11-25T10:35:36.308Z,18.50
2018-11-25T10:38:05.450Z,16.60
2018-11-25T10:40:34.760Z,21.73
2018-11-25T10:43:03.834Z,22.90
2018-11-25T10:45:32.455Z,14.90
2018-11-25T10:48:01.019Z,14.03
2018-11-25T10:50:29.596Z,16.10
2018-11-25T10:52:58.692Z,14.60
2018-11-25T10:55:27.700Z,14.67
2018-11-25T10:57:56.994Z,23.00
2018-11-25T11:00:35.252Z,19.43
2018-11-25T11:04:10.276Z,15.53
2018-11-25T11:07:46.663Z,14.87
2018-11-25T11:10:16.014Z,21.00
2018-11-25T11:12:45.046Z,15.50
2018-11-25T11:15:14.052Z,13.20
2018-11-25T11:17:43.740Z,15.93
2018-11-25T11:20:12.835Z,18.23
2018-11-25T11:22:42.476Z,17.60
2018-11-25T11:25:12.544Z,24.07
2018-11-25T11:27:41.223Z,16.03
2018-11-25T11:30:10.459Z,22.90
2018-11-25T11:32:41.968Z,17.53
2018-11-25T11:35:11.102Z,19.63
2018-11-25T11:37:40.360Z,22.43
2018-11-25T11:40:11.018Z,27.80
2018-11-25T11:42:40.076Z,19.90
2018-11-25T11:45:11.483Z,18.20
2018-11-25T11:47:40.984Z,26.97
2018-11-25T11:50:19.457Z,27.03
2018-11-25T11:52:48.474Z,26.47
2018-11-25T11:55:18.588Z,21.80
2018-11-25T11:57:48.591Z,25.17
2018-11-25T12:00:24.012Z,31.90
2018-11-25T12:02:53.312Z,27.23
2018-11-25T12:05:22.307Z,19.83
2018-11-25T12:07:54.766Z,28.77
2018-11-25T12:10:24.095Z,24.43
2018-11-25T12:12:53.152Z,28.23
2018-11-25T12:15:30.287Z,29.50
2018-11-25T12:17:55.092Z,26.60
2018-11-25T12:20:25.292Z,25.13
2018-11-25T12:22:54.438Z,32.23
2018-11-25T12:25:23.317Z,27.77
2018-11-25T12:27:52.491Z,34.13
2018-11-25T12:30:22.146Z,31.07
2018-11-25T12:32:51.825Z,29.83
2018-11-25T12:35:20.802Z,34.57
2018-11-25T12:37:49.806Z,41.60
2018-11-25T12:40:20.251Z,30.50
2018-11-25T12:42:52.337Z,41.20
2018-11-25T12:45:21.380Z,32.17
2018-11-25T12:47:50.814Z,31.90
2018-11-25T12:50:22.839Z,34.50
2018-11-25T12:52:51.946Z,32.80
2018-11-25T12:55:23.518Z,33.17
2018-11-25T12:57:53.908Z,36.00
2018-11-25T13:00:29.285Z,46.33
2018-11-25T13:02:58.387Z,34.87
2018-11-25T13:05:27.583Z,35.23
2018-11-25T13:07:57.131Z,36.17
2018-11-25T13:10:26.488Z,34.80
2018-11-25T13:12:55.586Z,45.67
2018-11-25T13:15:24.574Z,46.23
2018-11-25T13:17:54.689Z,38.73
2018-11-25T13:20:24.116Z,35.27
2018-11-25T13:22:53.576Z,39.63
2018-11-25T13:25:22.619Z,41.30
2018-11-25T13:27:52.440Z,37.30
2018-11-25T13:30:23.472Z,38.70
2018-11-25T13:32:54.046Z,35.53
2018-11-25T13:35:23.999Z,33.90
2018-11-25T13:37:52.962Z,32.87
2018-11-25T13:40:22.043Z,39.13
2018-11-25T13:42:51.013Z,36.50
2018-11-25T13:45:20.379Z,38.63
2018-11-25T13:47:49.628Z,30.73
2018-11-25T13:50:18.641Z,26.33
2018-11-25T13:52:47.665Z,27.50
2018-11-25T13:55:20.393Z,26.43
2018-11-25T13:57:49.367Z,28.37
2018-11-25T14:00:27.169Z,29.07
2018-11-25T14:02:57.062Z,28.87
2018-11-25T14:05:26.346Z,37.93
2018-11-25T14:07:55.341Z,29.23
2018-11-25T14:10:26.104Z,33.53
2018-11-25T14:12:55.827Z,29.53
2018-11-25T14:15:25.533Z,34.33
2018-11-25T14:17:55.383Z,34.97
2018-11-25T14:20:24.388Z,31.03
2018-11-25T14:22:54.484Z,32.33
2018-11-25T14:25:24.499Z,35.57
2018-11-25T14:27:55.487Z,32.33
2018-11-25T14:30:26.360Z,31.67
2018-11-25T14:32:55.676Z,35.60
2018-11-25T14:35:24.997Z,35.53
2018-11-25T14:37:54.684Z,33.77
2018-11-25T14:40:23.659Z,33.80
2018-11-25T14:42:52.668Z,31.70
2018-11-25T14:45:22.124Z,31.53
2018-11-25T14:47:51.121Z,31.77
2018-11-25T14:50:21.014Z,38.47
2018-11-25T14:52:51.700Z,35.00
2018-11-25T14:55:21.155Z,32.57
2018-11-25T14:57:54.506Z,35.93
2018-11-25T15:00:23.994Z,33.73
2018-11-25T15:02:57.520Z,41.20
2018-11-25T15:05:38.019Z,27.03
2018-11-25T15:08:08.089Z,27.10
2018-11-25T15:10:37.067Z,31.90
2018-11-25T15:13:06.840Z,29.57
2018-11-25T15:15:36.968Z,29.60
2018-11-25T15:18:07.525Z,27.00
2018-11-25T15:20:36.652Z,27.30
2018-11-25T15:23:08.671Z,30.50
2018-11-25T15:25:42.473Z,27.30
2018-11-25T15:28:11.893Z,26.70
2018-11-25T15:30:41.049Z,28.33
2018-11-25T15:33:10.134Z,27.20
2018-11-25T15:35:39.547Z,28.00
2018-11-25T15:38:08.756Z,25.23
2018-11-25T15:40:38.456Z,25.80
2018-11-25T15:43:08.577Z,24.07
2018-11-25T15:45:38.043Z,28.07
2018-11-25T15:48:10.554Z,28.63
2018-11-25T15:50:39.563Z,25.73
2018-11-25T15:53:09.786Z,25.97
2018-11-25T15:55:39.558Z,23.33
2018-11-25T15:58:08.728Z,22.80
2018-11-25T16:00:38.218Z,30.87
2018-11-25T16:03:08.517Z,25.03
2018-11-25T16:05:38.871Z,22.67
2018-11-25T16:08:07.850Z,25.73
2018-11-25T16:10:36.870Z,25.83
2018-11-25T16:13:07.374Z,26.27
2018-11-25T16:15:36.449Z,25.50
2018-11-25T16:18:05.935Z,22.37
2018-11-25T16:20:39.368Z,25.60
2018-11-25T16:23:10.497Z,23.13
2018-11-25T16:25:48.330Z,21.70
2018-11-25T16:28:26.034Z,24.93
2018-11-25T16:30:55.143Z,23.90
2018-11-25T16:33:24.996Z,23.37
2018-11-25T16:35:54.020Z,20.23
2018-11-25T16:38:23.540Z,22.30
2018-11-25T16:40:53.107Z,22.87
2018-11-25T16:43:22.784Z,25.80
2018-11-25T16:45:52.161Z,20.77
2018-11-25T16:48:21.202Z,24.53
2018-11-25T16:50:50.182Z,20.03
2018-11-25T16:53:19.653Z,21.03
2018-11-25T16:55:49.170Z,22.63
2018-11-25T16:58:18.440Z,24.20
2018-11-25T17:00:47.448Z,24.07
2018-11-25T17:03:16.471Z,19.33
2018-11-25T17:05:46.128Z,20.33
2018-11-25T17:08:25.505Z,22.97
2018-11-25T17:10:54.731Z,22.60
2018-11-25T17:13:24.012Z,25.97
2018-11-25T17:15:52.988Z,19.90
2018-11-25T17:18:22.276Z,19.87
2018-11-25T17:20:50.969Z,19.77
2018-11-25T17:23:19.883Z,20.50
2018-11-25T17:25:49.264Z,22.13
2018-11-25T17:28:18.680Z,25.10
2018-11-25T17:30:48.322Z,22.07
2018-11-25T17:33:23.121Z,15.60
2018-11-25T17:35:52.320Z,19.63
2018-11-25T17:38:21.382Z,21.30
2018-11-25T17:40:50.358Z,19.10
2018-11-25T17:43:21.420Z,21.43
2018-11-25T17:45:50.441Z,22.07
2018-11-25T17:48:19.509Z,20.03
2018-11-25T17:50:48.801Z,21.20
2018-11-25T17:53:20.845Z,22.43
2018-11-25T17:55:47.141Z,22.87
2018-11-25T17:58:16.120Z,20.30
2018-11-25T18:00:54.280Z,19.30
2018-11-25T18:03:25.189Z,19.33
2018-11-25T18:05:54.190Z,20.70
2018-11-25T18:08:24.251Z,19.87
2018-11-25T18:10:53.768Z,23.53
2018-11-25T18:13:28.579Z,19.37
2018-11-25T18:15:59.937Z,15.23
2018-11-25T18:18:33.570Z,22.33
2018-11-25T18:21:03.991Z,20.13
2018-11-25T18:23:33.017Z,18.83
2018-11-25T18:26:03.044Z,19.80
2018-11-25T18:28:32.101Z,19.30
2018-11-25T18:31:01.592Z,16.10
2018-11-25T18:33:30.928Z,16.53
2018-11-25T18:36:00.146Z,16.17
2018-11-25T18:38:29.574Z,17.60
2018-11-25T18:41:03.480Z,16.87
2018-11-25T18:43:32.538Z,14.93
2018-11-25T18:46:01.538Z,16.40
2018-11-25T18:48:32.223Z,16.77
2018-11-25T18:51:01.260Z,14.33
2018-11-25T18:53:30.799Z,15.17
2018-11-25T18:55:59.812Z,14.43
2018-11-25T18:58:29.564Z,16.27
2018-11-25T19:01:28.245Z,16.63
2018-11-25T19:03:57.664Z,15.37
2018-11-25T19:06:26.631Z,16.83
2018-11-25T19:08:56.495Z,14.50
2018-11-25T19:11:25.464Z,13.43
2018-11-25T19:13:54.481Z,19.70
2018-11-25T19:16:23.455Z,18.63
2018-11-25T19:18:52.479Z,15.83
2018-11-25T19:21:21.479Z,15.73
2018-11-25T19:23:50.504Z,16.47
2018-11-25T19:26:19.935Z,12.93
2018-11-25T19:28:50.568Z,14.60
2018-11-25T19:31:19.595Z,14.40
2018-11-25T19:33:48.591Z,15.70
2018-11-25T19:36:17.463Z,16.67
2018-11-25T19:38:46.392Z,14.47
2018-11-25T19:41:20.965Z,15.00
2018-11-25T19:43:50.184Z,15.33
2018-11-25T19:46:25.241Z,15.63
2018-11-25T19:48:54.362Z,14.00
2018-11-25T19:51:23.404Z,15.00
2018-11-25T19:53:52.535Z,13.20
2018-11-25T19:56:21.574Z,15.43
2018-11-25T20:01:30.164Z,13.60
2018-11-25T20:04:00.348Z,14.70
2018-11-25T20:06:29.359Z,16.03
2018-11-25T20:08:59.777Z,16.63
2018-11-25T20:11:29.030Z,13.90
2018-11-25T20:13:58.088Z,15.33
2018-11-25T20:16:32.497Z,18.47
2018-11-25T20:19:02.340Z,18.60
2018-11-25T20:21:36.827Z,20.13
2018-11-25T20:24:06.474Z,17.73
2018-11-25T20:26:35.564Z,16.47
2018-11-25T20:29:04.818Z,17.27
2018-11-25T20:31:33.955Z,18.27
2018-11-25T20:34:03.396Z,20.50
2018-11-25T20:36:32.495Z,19.00
2018-11-25T20:39:07.174Z,20.47
2018-11-25T20:41:36.827Z,18.43
2018-11-25T20:44:05.891Z,21.90
2018-11-25T20:46:40.243Z,16.77
2018-11-25T20:49:09.529Z,16.40
2018-11-25T20:52:44.720Z,17.80
2018-11-25T20:55:14.032Z,16.67
2018-11-25T20:57:43.409Z,16.27
2018-11-25T21:00:15.076Z,18.17
2018-11-25T21:02:43.305Z,14.73
2018-11-25T21:05:13.305Z,15.47
2018-11-25T21:07:42.592Z,16.23
2018-11-25T21:10:14.599Z,15.33
2018-11-25T21:12:44.857Z,16.10
2018-11-25T21:15:14.373Z,17.90
2018-11-25T21:17:43.709Z,17.57
2018-11-25T21:20:21.146Z,17.30
2018-11-25T21:22:50.156Z,18.70
2018-11-25T21:25:20.750Z,19.23
2018-11-25T21:27:50.047Z,17.80
2018-11-25T21:30:22.265Z,19.73
2018-11-25T21:32:52.595Z,19.67
2018-11-25T21:35:21.817Z,21.80
2018-11-25T21:37:51.131Z,18.03
2018-11-25T21:40:21.629Z,19.47
2018-11-25T21:42:50.694Z,20.27
2018-11-25T21:45:20.288Z,19.70
2018-11-25T21:47:49.727Z,23.23
2018-11-25T21:50:22.926Z,19.60
2018-11-25T21:52:51.956Z,21.37
2018-11-25T21:55:21.196Z,20.73
2018-11-25T21:57:50.418Z,21.23
2018-11-25T22:00:22.815Z,18.57
2018-11-25T22:02:51.871Z,17.53
2018-11-25T22:05:24.650Z,19.07
2018-11-25T22:07:50.148Z,20.37
2018-11-25T22:10:20.601Z,20.83
2018-11-25T22:12:50.047Z,18.03
2018-11-25T22:15:20.523Z,21.00
2018-11-25T22:17:49.973Z,20.77
2018-11-25T22:20:19.192Z,16.50
2018-11-25T22:22:48.216Z,19.00
2018-11-25T22:25:18.751Z,17.73
2018-11-25T22:27:48.526Z,20.07
2018-11-25T22:30:21.379Z,20.87
2018-11-25T22:32:50.456Z,18.90
2018-11-25T22:35:21.934Z,20.20
2018-11-25T22:37:51.491Z,17.20
2018-11-25T22:40:20.707Z,20.37
2018-11-25T22:42:50.548Z,18.70
2018-11-25T22:45:22.000Z,19.80
2018-11-25T22:47:50.998Z,18.93
2018-11-25T22:50:25.603Z,18.20
2018-11-25T22:52:53.995Z,22.53
2018-11-25T22:55:24.715Z,20.87
2018-11-25T22:57:54.248Z,17.23
2018-11-25T23:00:28.072Z,17.53
2018-11-25T23:02:57.192Z,20.00
2018-11-25T23:05:37.566Z,19.40
2018-11-25T23:08:07.867Z,19.23
2018-11-25T23:10:36.882Z,23.03
2018-11-25T23:13:06.287Z,18.70
2018-11-25T23:15:35.311Z,21.50
2018-11-25T23:18:04.676Z,18.53
2018-11-25T23:20:34.032Z,17.87
2018-11-25T23:23:03.040Z,19.50
2018-11-25T23:25:32.306Z,22.00
2018-11-25T23:28:01.363Z,19.13
2018-11-25T23:30:30.345Z,19.77
2018-11-25T23:32:59.396Z,20.33
2018-11-25T23:35:29.383Z,18.40
2018-11-25T23:37:58.404Z,17.27
2018-11-25T23:40:27.387Z,18.00
2018-11-25T23:42:56.414Z,23.70
2018-11-25T23:45:25.435Z,18.57
2018-11-25T23:47:54.743Z,21.17
2018-11-25T23:50:24.343Z,17.73
2018-11-25T23:52:53.403Z,18.73
2018-11-25T23:55:22.843Z,19.37
2018-11-25T23:57:52.064Z,16.97
